Time;durP1;ratioP1;P1;durP2;ratioP2;P2;SDS_P1;SDS_P2;PMS_P1;PMS_P2;Temp;Humidity;BMP_temperature;BMP_pressure;BME280_temperature;BME280_humidity;BME280_pressure;Samples;Min_cycle;Max_cycle;Signal;HPM_P1;HPM_P2
2022/04/30 00:00:43;;;;;;;5.47;4.10;;;7.40;99.90;;;;;;4868774;29;20321;-59
2022/04/30 00:03:11;;;;;;;6.97;4.30;;;7.40;99.90;;;;;;4865589;29;20591;-59
2022/04/30 00:05:39;;;;;;;6.03;4.10;;;7.30;99.90;;;;;;4859494;29;20302;-59
2022/04/30 00:08:08;;;;;;;6.63;4.13;;;7.40;99.90;;;;;;4865988;29;20644;-59
2022/04/30 00:10:38;;;;;;;8.10;3.93;;;7.40;99.90;;;;;;4861778;29;20234;-59
2022/04/30 00:13:11;;;;;;;6.20;3.77;;;7.50;99.90;;;;;;4867791;29;20329;-60
2022/04/30 00:15:39;;;;;;;7.67;3.83;;;7.40;99.90;;;;;;4875549;29;20241;-60
2022/04/30 00:18:08;;;;;;;7.93;4.23;;;7.40;99.90;;;;;;4876140;29;20291;-59
2022/04/30 00:20:37;;;;;;;5.93;4.00;;;7.40;99.90;;;;;;4860638;29;20246;-59
2022/04/30 00:23:19;;;;;;;6.50;4.20;;;7.30;99.90;;;;;;4868446;29;20246;-60
2022/04/30 00:25:49;;;;;;;5.80;4.13;;;7.30;99.90;;;;;;4864959;29;20307;-60
2022/04/30 00:28:21;;;;;;;13.10;4.60;;;7.20;99.90;;;;;;4872334;29;20246;-59
2022/04/30 00:30:50;;;;;;;6.63;3.80;;;7.30;99.90;;;;;;4886779;29;20622;-59
2022/04/30 00:33:18;;;;;;;7.30;4.23;;;7.30;99.90;;;;;;4881652;29;20609;-59
2022/04/30 00:35:46;;;;;;;7.00;4.20;;;7.40;99.90;;;;;;4866950;29;20243;-59
2022/04/30 00:38:15;;;;;;;8.77;4.17;;;7.30;99.90;;;;;;4867791;29;20246;-61
2022/04/30 00:40:43;;;;;;;6.37;4.00;;;7.20;99.90;;;;;;4861613;29;20242;-59
2022/04/30 00:43:12;;;;;;;5.93;4.17;;;7.20;99.90;;;;;;4873590;29;20702;-59
2022/04/30 00:45:47;;;;;;;8.40;4.33;;;7.10;99.90;;;;;;4874158;29;20238;-60
2022/04/30 00:48:16;;;;;;;10.13;4.40;;;7.10;99.90;;;;;;4867806;29;20257;-59
2022/04/30 00:50:44;;;;;;;7.13;4.07;;;7.10;99.90;;;;;;4861529;29;20273;-60
2022/04/30 00:53:16;;;;;;;8.00;3.83;;;6.90;99.90;;;;;;4870062;29;20294;-59
2022/04/30 00:55:45;;;;;;;6.90;4.53;;;7.00;99.90;;;;;;4860523;29;20252;-60
2022/04/30 00:58:16;;;;;;;7.40;4.37;;;6.90;99.90;;;;;;4879043;29;20245;-61
2022/04/30 01:00:47;;;;;;;8.03;4.20;;;6.80;99.90;;;;;;4895108;29;20720;-59
2022/04/30 01:03:45;;;;;;;6.17;4.47;;;6.70;99.90;;;;;;4862678;29;20719;-59
2022/04/30 01:06:13;;;;;;;7.37;4.00;;;6.70;99.90;;;;;;4880747;29;20241;-60
2022/04/30 01:08:41;;;;;;;7.20;4.23;;;6.70;99.90;;;;;;4885899;29;20245;-59
2022/04/30 01:11:09;;;;;;;7.57;4.27;;;6.60;99.90;;;;;;4879641;29;20762;-60
2022/04/30 01:13:38;;;;;;;6.70;3.97;;;6.70;99.90;;;;;;4867744;29;20244;-59
2022/04/30 01:16:08;;;;;;;5.63;4.03;;;6.60;99.90;;;;;;4878767;29;20634;-59
2022/04/30 01:18:37;;;;;;;5.40;4.33;;;6.60;99.90;;;;;;4871379;29;20239;-59
2022/04/30 01:21:12;;;;;;;6.33;4.33;;;6.60;99.90;;;;;;4859968;29;20239;-59
2022/04/30 01:23:44;;;;;;;6.03;4.30;;;6.80;99.90;;;;;;4860151;29;20321;-59
2022/04/30 01:26:14;;;;;;;9.47;5.07;;;6.70;99.90;;;;;;4860660;29;20246;-61
2022/04/30 01:28:44;;;;;;;7.40;4.40;;;6.60;99.90;;;;;;4892446;29;20694;-59
2022/04/30 01:39:32;;;;;;;8.60;4.60;;;6.40;99.90;;;;;;4895692;29;20237;-59
2022/04/30 01:42:11;;;;;;;9.33;4.53;;;6.40;99.90;;;;;;4888418;29;20265;-59
2022/04/30 01:44:42;;;;;;;7.67;4.30;;;6.40;99.90;;;;;;4874171;29;20238;-59
2022/04/30 01:47:12;;;;;;;8.07;4.30;;;6.40;99.90;;;;;;4879670;29;20241;-59
2022/04/30 01:49:41;;;;;;;9.37;4.83;;;6.40;99.90;;;;;;4874226;29;20309;-59
2022/04/30 01:52:13;;;;;;;7.77;4.33;;;6.30;99.90;;;;;;4866358;29;20693;-60
2022/04/30 01:54:42;;;;;;;6.83;4.10;;;6.30;99.90;;;;;;4874092;29;20242;-59
2022/04/30 01:57:12;;;;;;;7.40;4.40;;;6.40;99.90;;;;;;4874294;29;20316;-59
2022/04/30 01:59:41;;;;;;;8.83;4.33;;;6.40;99.90;;;;;;4884674;29;20360;-59
2022/04/30 02:02:09;;;;;;;6.17;3.63;;;6.40;99.90;;;;;;4868537;29;20238;-60
2022/04/30 02:04:38;;;;;;;7.00;4.33;;;6.50;99.90;;;;;;4860362;29;20753;-59
2022/04/30 02:07:07;;;;;;;4.50;3.83;;;6.50;99.90;;;;;;4867920;29;20241;-59
2022/04/30 02:09:35;;;;;;;6.87;4.57;;;6.60;99.90;;;;;;4859017;29;20595;-59
2022/04/30 02:12:06;;;;;;;6.10;4.03;;;6.40;99.90;;;;;;4862720;29;20330;-60
2022/04/30 02:14:35;;;;;;;5.90;3.93;;;6.40;99.90;;;;;;4866524;29;20333;-59
2022/04/30 02:17:04;;;;;;;7.03;4.37;;;6.40;99.90;;;;;;4866108;29;20769;-59
2022/04/30 02:20:18;;;;;;;8.20;4.37;;;6.40;99.90;;;;;;4859468;29;20269;-59
2022/04/30 02:22:23;;;;;;;5.50;4.13;;;6.40;99.90;;;;;;4863276;29;20634;-59
2022/04/30 02:24:52;;;;;;;7.40;4.70;;;6.30;99.90;;;;;;4877381;29;20245;-59
2022/04/30 02:27:23;;;;;;;4.87;3.90;;;6.30;99.90;;;;;;4878676;29;20713;-59
2022/04/30 02:29:52;;;;;;;9.50;4.30;;;6.40;99.90;;;;;;4879275;29;20237;-59
2022/04/30 02:32:20;;;;;;;7.03;4.30;;;6.40;99.90;;;;;;4873017;29;20237;-59
2022/04/30 02:34:48;;;;;;;8.40;4.50;;;6.40;99.90;;;;;;4866157;29;20245;-59
2022/04/30 02:37:16;;;;;;;6.60;4.00;;;6.40;99.90;;;;;;4865904;29;20324;-59
2022/04/30 02:39:46;;;;;;;5.20;4.10;;;6.40;99.90;;;;;;4859014;29;20723;-59
2022/04/30 02:42:14;;;;;;;6.03;4.67;;;6.40;99.90;;;;;;4866831;29;20247;-59
2022/04/30 02:44:44;;;;;;;7.27;3.90;;;6.30;99.90;;;;;;4876738;29;20234;-59
2022/04/30 02:47:13;;;;;;;7.33;4.23;;;6.30;99.90;;;;;;4869048;29;20328;-60
2022/04/30 02:49:41;;;;;;;4.73;4.10;;;6.30;99.90;;;;;;4858417;29;20249;-59
2022/04/30 02:52:09;;;;;;;6.67;4.47;;;6.30;99.90;;;;;;4865502;29;20255;-59
2022/04/30 02:54:37;;;;;;;5.87;4.20;;;6.20;99.90;;;;;;4865842;29;20234;-59
2022/04/30 02:57:06;;;;;;;5.33;3.90;;;6.40;99.90;;;;;;4866179;29;20241;-59
2022/04/30 03:02:41;;;;;;;6.83;4.40;;;6.40;99.90;;;;;;4865490;29;20290;-59
2022/04/30 03:05:10;;;;;;;5.57;4.13;;;6.40;99.90;;;;;;4859734;29;20241;-60
2022/04/30 03:07:46;;;;;;;6.30;3.97;;;6.50;99.90;;;;;;4865902;29;20250;-59
2022/04/30 03:10:14;;;;;;;4.80;4.23;;;6.40;99.90;;;;;;4861997;29;20318;-60
2022/04/30 03:12:43;;;;;;;5.07;4.03;;;6.60;99.90;;;;;;4868356;29;20230;-59
2022/04/30 03:15:11;;;;;;;5.87;4.10;;;6.50;99.90;;;;;;4866654;29;20695;-59
2022/04/30 03:23:12;;;;;;;6.93;4.50;;;6.50;99.90;;;;;;4865907;29;20290;-60
2022/04/30 03:25:40;;;;;;;7.20;4.43;;;6.40;99.90;;;;;;4863820;29;20341;-59
2022/04/30 03:28:08;;;;;;;7.83;4.80;;;6.40;99.90;;;;;;4868730;29;20237;-59
2022/04/30 03:30:36;;;;;;;5.80;4.80;;;6.50;99.90;;;;;;4872883;29;20230;-59
2022/04/30 03:33:08;;;;;;;7.87;4.53;;;6.60;99.90;;;;;;4864757;29;20595;-60
2022/04/30 03:35:39;;;;;;;6.60;4.47;;;6.70;99.90;;;;;;4866276;29;20730;-59
2022/04/30 03:38:08;;;;;;;5.33;4.33;;;6.60;99.90;;;;;;4865373;29;20245;-59
2022/04/30 03:40:38;;;;;;;5.10;4.20;;;6.80;99.90;;;;;;4865117;29;20257;-59
2022/04/30 03:43:07;;;;;;;4.97;3.90;;;6.70;99.90;;;;;;4866394;29;20249;-59
2022/04/30 03:45:36;;;;;;;7.47;4.37;;;6.60;99.90;;;;;;4865829;29;20592;-60
2022/04/30 03:48:06;;;;;;;7.43;4.73;;;6.70;99.90;;;;;;4872345;29;20238;-59
2022/04/30 03:50:34;;;;;;;6.13;4.53;;;6.60;99.90;;;;;;4875969;29;20237;-59
2022/04/30 03:53:03;;;;;;;7.03;4.77;;;6.50;99.90;;;;;;4867668;29;20306;-59
2022/04/30 03:55:31;;;;;;;6.77;4.60;;;6.30;99.90;;;;;;4868354;29;20239;-60
2022/04/30 03:57:59;;;;;;;8.03;4.27;;;6.30;99.90;;;;;;4870798;29;20733;-59
2022/04/30 04:00:28;;;;;;;6.43;4.70;;;6.20;99.90;;;;;;4877141;29;20246;-59
2022/04/30 04:02:59;;;;;;;6.53;4.53;;;6.20;99.90;;;;;;4869134;29;20235;-59
2022/04/30 04:05:29;;;;;;;6.40;4.10;;;6.20;99.90;;;;;;4873327;29;20321;-60
2022/04/30 04:07:58;;;;;;;4.80;4.10;;;6.10;99.90;;;;;;4873367;29;20246;-59
2022/04/30 04:10:27;;;;;;;5.67;4.23;;;6.10;99.90;;;;;;4879142;29;20324;-61
2022/04/30 04:17:37;;;;;;;5.40;4.10;;;6.10;99.90;;;;;;4867410;29;20602;-60
2022/04/30 04:18:29;;;;;;;8.20;4.30;;;6.10;99.90;;;;;;4878038;29;20241;-59
2022/04/30 04:20:59;;;;;;;4.80;4.23;;;6.10;99.90;;;;;;4877824;29;20245;-59
2022/04/30 04:23:27;;;;;;;6.37;4.23;;;6.00;99.90;;;;;;4872784;29;20671;-59
2022/04/30 04:26:00;;;;;;;6.60;4.53;;;6.10;99.90;;;;;;4860762;29;20746;-59
2022/04/30 04:28:29;;;;;;;4.30;3.90;;;6.10;99.90;;;;;;4871913;29;20728;-59
2022/04/30 04:30:57;;;;;;;6.30;4.30;;;6.40;99.90;;;;;;4869262;29;20238;-59
2022/04/30 04:33:25;;;;;;;6.63;4.67;;;6.40;99.90;;;;;;4866929;29;20265;-60
2022/04/30 04:35:53;;;;;;;7.37;4.53;;;6.50;99.90;;;;;;4872977;29;20258;-59
2022/04/30 04:38:23;;;;;;;7.77;4.33;;;6.50;99.90;;;;;;4867895;29;20248;-59
2022/04/30 04:40:51;;;;;;;6.63;4.93;;;6.60;99.90;;;;;;4862624;29;20307;-59
2022/04/30 04:43:19;;;;;;;7.07;5.07;;;6.60;99.90;;;;;;4860622;29;20711;-59
2022/04/30 04:45:47;;;;;;;6.67;4.60;;;6.70;99.90;;;;;;4862305;29;20254;-59
2022/04/30 04:48:15;;;;;;;7.63;4.90;;;6.80;99.90;;;;;;4871124;29;20298;-59
2022/04/30 04:50:46;;;;;;;5.03;4.53;;;6.90;99.90;;;;;;4862434;29;20256;-59
2022/04/30 04:53:15;;;;;;;5.60;4.90;;;6.80;99.90;;;;;;4867325;29;20295;-60
2022/04/30 04:55:44;;;;;;;7.53;4.97;;;7.00;99.90;;;;;;4875134;29;20253;-59
2022/04/30 04:58:12;;;;;;;6.67;5.03;;;7.10;99.90;;;;;;4878754;29;20274;-61
2022/04/30 05:00:40;;;;;;;5.73;5.13;;;7.10;99.90;;;;;;4860534;29;20235;-61
2022/04/30 05:03:09;;;;;;;7.33;4.93;;;7.10;99.90;;;;;;4867197;29;20234;-60
2022/04/30 05:05:37;;;;;;;6.57;4.73;;;7.00;99.90;;;;;;4863621;29;20333;-59
2022/04/30 05:08:05;;;;;;;6.50;4.77;;;7.00;99.90;;;;;;4883710;29;20248;-60
2022/04/30 05:10:35;;;;;;;8.93;5.00;;;7.00;99.90;;;;;;4886427;29;20244;-59
2022/04/30 05:13:05;;;;;;;7.73;5.03;;;7.00;99.90;;;;;;4879774;29;20246;-59
2022/04/30 05:15:33;;;;;;;6.40;4.80;;;7.10;99.90;;;;;;4884362;29;20717;-61
2022/04/30 05:18:02;;;;;;;7.27;4.90;;;7.10;99.90;;;;;;4889079;29;20252;-60
2022/04/30 05:20:32;;;;;;;5.70;4.90;;;7.20;99.90;;;;;;4887163;29;20285;-59
2022/04/30 05:23:10;;;;;;;6.67;4.77;;;7.20;99.90;;;;;;4876649;29;20240;-59
2022/04/30 05:25:40;;;;;;;6.03;4.60;;;7.30;99.90;;;;;;4883240;29;20258;-59
2022/04/30 05:28:11;;;;;;;7.63;5.00;;;7.40;99.90;;;;;;4879198;29;20289;-62
2022/04/30 05:30:40;;;;;;;7.10;5.00;;;7.50;99.90;;;;;;4878986;29;20237;-59
2022/04/30 05:33:08;;;;;;;8.40;5.07;;;7.70;99.90;;;;;;4889144;29;20237;-60
2022/04/30 05:35:36;;;;;;;8.40;4.83;;;7.90;99.90;;;;;;4888572;29;20747;-60
2022/04/30 05:38:04;;;;;;;6.63;5.50;;;7.90;99.90;;;;;;4889983;29;20274;-60
2022/04/30 05:40:32;;;;;;;6.50;5.40;;;8.00;99.90;;;;;;4896354;29;20245;-60
2022/04/30 05:43:00;;;;;;;6.17;5.33;;;8.10;99.90;;;;;;4890486;29;20248;-59
2022/04/30 05:45:30;;;;;;;8.53;5.17;;;8.20;99.90;;;;;;4878563;29;20244;-60
2022/04/30 05:47:58;;;;;;;7.73;4.97;;;8.40;99.90;;;;;;4877941;29;20246;-60
2022/04/30 05:50:26;;;;;;;10.23;5.37;;;8.50;99.90;;;;;;4881328;29;20659;-60
2022/04/30 05:52:54;;;;;;;9.93;5.57;;;8.60;99.90;;;;;;4889787;29;20233;-60
2022/04/30 05:55:23;;;;;;;8.83;6.07;;;8.80;99.90;;;;;;4885709;29;20647;-60
2022/04/30 05:57:51;;;;;;;8.63;5.40;;;8.90;99.90;;;;;;4885366;29;20236;-60
2022/04/30 06:00:20;;;;;;;8.07;4.93;;;9.10;99.90;;;;;;4895707;29;20793;-60
2022/04/30 06:02:49;;;;;;;6.97;4.93;;;9.10;99.90;;;;;;4892953;29;20249;-60
2022/04/30 06:05:18;;;;;;;9.80;5.30;;;9.10;99.90;;;;;;4893612;29;20266;-60
2022/04/30 06:07:46;;;;;;;10.40;5.13;;;9.20;99.90;;;;;;4872799;29;20248;-62
2022/04/30 06:10:15;;;;;;;6.80;5.10;;;9.40;99.90;;;;;;4877610;29;20253;-60
2022/04/30 06:12:43;;;;;;;7.00;5.00;;;9.50;99.90;;;;;;4885988;29;20583;-60
2022/04/30 06:15:11;;;;;;;9.53;4.77;;;9.50;99.90;;;;;;4877359;29;20261;-60
2022/04/30 06:17:39;;;;;;;8.37;4.87;;;9.70;99.90;;;;;;4891423;29;20297;-60
2022/04/30 06:20:10;;;;;;;9.37;5.00;;;9.70;99.90;;;;;;4888034;29;20612;-61
2022/04/30 06:22:38;;;;;;;7.40;4.87;;;9.90;99.90;;;;;;4885885;29;20247;-60
2022/04/30 06:25:08;;;;;;;6.93;4.67;;;10.00;99.90;;;;;;4867771;29;20330;-60
2022/04/30 06:27:36;;;;;;;6.23;4.53;;;10.10;99.90;;;;;;4873284;29;20250;-61
2022/04/30 06:30:06;;;;;;;6.53;4.87;;;10.30;99.90;;;;;;4876619;29;20245;-60
2022/04/30 06:32:34;;;;;;;6.73;4.57;;;10.50;99.90;;;;;;4874676;29;20238;-61
2022/04/30 06:35:03;;;;;;;6.40;4.50;;;10.70;99.90;;;;;;4877221;29;20246;-60
2022/04/30 06:37:33;;;;;;;8.17;4.60;;;10.80;99.90;;;;;;4876648;29;20303;-60
2022/04/30 06:40:01;;;;;;;6.13;4.40;;;10.80;99.90;;;;;;4880001;29;20290;-60
2022/04/30 06:42:38;;;;;;;6.60;4.60;;;10.90;99.90;;;;;;4884267;29;20732;-60
2022/04/30 06:45:08;;;;;;;6.63;4.53;;;11.10;99.90;;;;;;4892369;29;20250;-61
2022/04/30 06:47:36;;;;;;;5.20;3.90;;;11.20;99.90;;;;;;4884476;29;20577;-60
2022/04/30 06:50:05;;;;;;;8.27;3.90;;;11.30;99.90;;;;;;4876964;29;20266;-61
2022/04/30 06:52:35;;;;;;;7.50;4.57;;;11.40;99.90;;;;;;4885072;29;20706;-60
2022/04/30 06:57:49;;;;;;;8.03;4.17;;;11.60;99.90;;;;;;4866283;29;20267;-60
2022/04/30 07:03:08;;;;;;;6.20;3.80;;;11.80;99.90;;;;;;4869767;29;20251;-60
2022/04/30 07:05:36;;;;;;;7.63;3.53;;;12.00;99.90;;;;;;4872770;29;20626;-60
2022/04/30 07:08:07;;;;;;;5.47;3.23;;;12.20;99.90;;;;;;4865866;29;20758;-60
2022/04/30 07:10:35;;;;;;;5.87;3.60;;;12.40;99.90;;;;;;4858162;29;20248;-60
2022/04/30 07:13:03;;;;;;;4.03;3.27;;;12.70;99.90;;;;;;4864803;29;20267;-60
2022/04/30 07:15:32;;;;;;;5.53;3.50;;;13.10;99.90;;;;;;4867964;29;20250;-60
2022/04/30 07:18:00;;;;;;;6.47;3.17;;;13.30;99.90;;;;;;4866266;29;20255;-60
2022/04/30 07:20:28;;;;;;;5.90;2.70;;;13.70;99.90;;;;;;4870284;29;20257;-60
2022/04/30 07:22:56;;;;;;;4.83;2.90;;;13.90;99.90;;;;;;4869511;29;20241;-61
2022/04/30 07:25:26;;;;;;;5.40;2.70;;;13.70;99.90;;;;;;4863011;29;20769;-60
2022/04/30 07:27:54;;;;;;;5.63;2.50;;;13.80;99.90;;;;;;4874094;29;20566;-61
2022/04/30 07:30:22;;;;;;;5.33;3.20;;;14.00;99.90;;;;;;4873807;29;20296;-61
2022/04/30 07:32:51;;;;;;;4.97;3.17;;;14.20;99.90;;;;;;4865236;29;20328;-61
2022/04/30 07:35:19;;;;;;;4.47;3.13;;;14.30;99.90;;;;;;4866687;29;20604;-62
2022/04/30 07:37:47;;;;;;;5.03;3.40;;;14.50;99.90;;;;;;4869827;29;20253;-62
2022/04/30 07:40:15;;;;;;;5.33;3.13;;;14.30;99.90;;;;;;4873108;29;20327;-61
2022/04/30 07:42:45;;;;;;;4.20;3.20;;;14.20;99.90;;;;;;4871170;29;20256;-61
2022/04/30 07:45:13;;;;;;;7.17;3.53;;;14.10;99.90;;;;;;4867213;29;20265;-62
2022/04/30 07:47:41;;;;;;;4.50;3.30;;;13.90;99.90;;;;;;4860188;29;20638;-61
2022/04/30 07:50:10;;;;;;;4.57;2.40;;;14.10;99.90;;;;;;4872407;29;20252;-63
2022/04/30 07:52:38;;;;;;;5.67;3.20;;;14.10;99.90;;;;;;4859148;29;20253;-62
2022/04/30 07:55:07;;;;;;;6.13;3.43;;;14.20;99.90;;;;;;4864309;29;20682;-62
2022/04/30 07:57:35;;;;;;;6.00;3.13;;;14.10;99.90;;;;;;4862304;29;20246;-62
2022/04/30 08:00:06;;;;;;;4.93;2.83;;;14.00;99.90;;;;;;4863733;29;20325;-61
2022/04/30 08:02:36;;;;;;;4.33;2.90;;;14.00;99.90;;;;;;4861284;29;20427;-60
2022/04/30 08:05:06;;;;;;;5.53;2.70;;;13.60;99.90;;;;;;4864293;29;20245;-61
2022/04/30 08:07:34;;;;;;;3.73;2.60;;;13.50;99.90;;;;;;4861411;29;20732;-61
2022/04/30 08:10:02;;;;;;;4.37;2.50;;;13.20;99.90;;;;;;4860111;29;20268;-61
2022/04/30 08:12:30;;;;;;;3.00;2.70;;;13.30;99.90;;;;;;4866041;29;20348;-62
2022/04/30 08:14:58;;;;;;;6.10;3.30;;;13.40;99.90;;;;;;4862173;29;20260;-62
2022/04/30 08:17:29;;;;;;;4.57;3.07;;;13.40;99.90;;;;;;4860748;29;20610;-63
2022/04/30 08:19:57;;;;;;;3.77;3.40;;;13.50;99.90;;;;;;4859965;29;20245;-61
2022/04/30 08:22:25;;;;;;;4.67;3.07;;;13.50;99.90;;;;;;4861182;29;20248;-63
2022/04/30 08:24:53;;;;;;;3.10;2.80;;;13.40;99.90;;;;;;4861906;29;20717;-62
2022/04/30 08:27:22;;;;;;;4.13;2.60;;;13.50;99.90;;;;;;4859952;29;20250;-63
2022/04/30 08:29:50;;;;;;;4.57;2.90;;;14.10;99.90;;;;;;4860714;29;20246;-63
2022/04/30 08:32:19;;;;;;;3.23;2.30;;;14.20;99.90;;;;;;4857777;29;20651;-61
2022/04/30 08:34:49;;;;;;;3.33;2.43;;;14.20;99.90;;;;;;4857151;29;20337;-63
2022/04/30 08:37:17;;;;;;;3.73;2.07;;;14.40;99.90;;;;;;4859446;29;20260;-62
2022/04/30 08:39:46;;;;;;;2.90;2.00;;;14.70;99.90;;;;;;4861370;29;20245;-62
2022/04/30 08:42:16;;;;;;;4.93;2.93;;;15.10;99.90;;;;;;4859666;29;20254;-63
2022/04/30 08:44:44;;;;;;;4.43;3.20;;;15.00;99.90;;;;;;4860874;29;20726;-62
2022/04/30 08:47:13;;;;;;;5.87;3.23;;;15.10;99.90;;;;;;4856756;29;20314;-62
2022/04/30 08:49:42;;;;;;;4.97;3.43;;;15.70;99.90;;;;;;4862710;29;20247;-62
2022/04/30 08:52:15;;;;;;;6.10;3.67;;;16.30;99.90;;;;;;4860536;29;20241;-64
2022/04/30 08:54:43;;;;;;;6.23;3.87;;;16.10;99.90;;;;;;4863634;29;20238;-62
2022/04/30 08:57:14;;;;;;;4.07;3.40;;;16.10;99.90;;;;;;4856994;29;20253;-64
2022/04/30 08:59:43;;;;;;;6.17;4.30;;;16.20;99.90;;;;;;4865287;29;20254;-62
2022/04/30 09:02:12;;;;;;;4.90;3.60;;;16.20;99.90;;;;;;4858677;29;20742;-62
2022/04/30 09:04:45;;;;;;;4.97;3.47;;;16.00;99.90;;;;;;4862451;29;20769;-62
2022/04/30 09:07:17;;;;;;;5.47;2.97;;;16.00;99.90;;;;;;4860270;29;20241;-61
2022/04/30 09:09:52;;;;;;;3.87;3.33;;;16.20;99.90;;;;;;4858631;29;20923;-63
2022/04/30 09:12:21;;;;;;;8.27;4.40;;;16.20;99.90;;;;;;4858419;29;20302;-62
2022/04/30 09:14:49;;;;;;;5.93;3.57;;;15.80;99.90;;;;;;4861052;29;20695;-64
2022/04/30 09:17:18;;;;;;;8.07;4.60;;;16.10;99.90;;;;;;4861443;29;20588;-61
2022/04/30 09:19:54;;;;;;;4.63;2.53;;;16.30;99.90;;;;;;4859865;29;20617;-62
2022/04/30 09:22:34;;;;;;;3.70;2.70;;;16.10;99.90;;;;;;4860689;29;20373;-62
2022/04/30 09:25:05;;;;;;;5.67;3.17;;;15.70;99.90;;;;;;4860129;29;20242;-61
2022/04/30 09:27:53;;;;;;;2.70;2.00;;;15.80;99.90;;;;;;4868106;29;20233;-62
2022/04/30 09:30:24;;;;;;;2.83;2.10;;;15.70;99.90;;;;;;4868553;29;20263;-62
2022/04/30 09:32:59;;;;;;;4.17;2.43;;;15.40;99.90;;;;;;4865229;29;20328;-62
2022/04/30 09:38:15;;;;;;;5.10;2.73;;;14.90;99.90;;;;;;4863101;29;20272;-61
2022/04/30 09:40:52;;;;;;;3.40;3.10;;;14.50;99.90;;;;;;4857733;29;20234;-63
2022/04/30 09:43:21;;;;;;;5.40;3.87;;;14.30;99.90;;;;;;4863699;29;20249;-63
2022/04/30 09:45:50;;;;;;;6.37;4.23;;;14.20;99.90;;;;;;4879452;29;20251;-63
2022/04/30 09:53:58;;;;;;;5.90;4.70;;;14.40;99.90;;;;;;4863764;29;20248;-63
2022/04/30 09:56:34;;;;;;;6.97;4.60;;;14.50;99.90;;;;;;4858988;29;20303;-63
2022/04/30 09:59:07;;;;;;;5.53;4.70;;;15.10;99.90;;;;;;4859850;29;20320;-61
2022/04/30 10:01:37;;;;;;;6.50;4.67;;;15.60;99.90;;;;;;4860886;29;21101;-64
2022/04/30 10:04:08;;;;;;;4.67;3.87;;;15.60;99.90;;;;;;4856609;29;20248;-64
2022/04/30 10:06:40;;;;;;;5.70;4.00;;;15.30;99.90;;;;;;4860399;29;20241;-63
2022/04/30 10:09:18;;;;;;;6.73;4.07;;;15.40;99.90;;;;;;4863279;29;20822;-62
2022/04/30 10:12:01;;;;;;;6.60;3.90;;;15.30;99.90;;;;;;4859392;29;20237;-62
2022/04/30 10:14:44;;;;;;;5.17;4.13;;;15.50;99.90;;;;;;4859567;29;20242;-64
2022/04/30 10:17:16;;;;;;;5.10;3.73;;;15.50;99.90;;;;;;4860554;29;20249;-62
2022/04/30 10:19:56;;;;;;;6.27;3.67;;;15.50;99.90;;;;;;4860498;29;20739;-63
2022/04/30 10:22:24;;;;;;;4.83;3.67;;;15.40;99.90;;;;;;4863866;29;20255;-63
2022/04/30 10:24:57;;;;;;;4.40;3.53;;;15.70;99.90;;;;;;4865210;29;20238;-64
2022/04/30 10:27:37;;;;;;;5.57;3.50;;;16.00;99.90;;;;;;4859334;29;20326;-64
2022/04/30 10:30:07;;;;;;;3.73;3.40;;;16.30;99.90;;;;;;4858436;29;20644;-62
2022/04/30 10:32:37;;;;;;;3.53;3.17;;;16.70;99.90;;;;;;4857724;29;20324;-62
2022/04/30 10:35:06;;;;;;;4.43;3.37;;;17.00;99.90;;;;;;4862200;29;20245;-63
2022/04/30 10:37:36;;;;;;;3.97;3.50;;;17.40;99.90;;;;;;4859452;29;20600;-61
2022/04/30 10:40:07;;;;;;;2.97;2.67;;;17.50;99.90;;;;;;4859279;29;20781;-62
2022/04/30 10:42:43;;;;;;;3.93;2.80;;;17.40;99.90;;;;;;4856989;29;20249;-62
2022/04/30 10:45:15;;;;;;;3.20;2.70;;;17.20;99.90;;;;;;4857880;29;20805;-61
2022/04/30 10:47:50;;;;;;;5.10;2.83;;;18.00;99.90;;;;;;4858539;29;20258;-62
2022/04/30 10:50:19;;;;;;;3.83;3.37;;;18.60;99.90;;;;;;4858279;29;20252;-64
2022/04/30 10:52:49;;;;;;;4.63;3.67;;;18.30;99.90;;;;;;4868428;29;20247;-62
2022/04/30 10:55:21;;;;;;;4.73;3.40;;;17.40;99.90;;;;;;4857351;29;20258;-64
2022/04/30 10:57:49;;;;;;;5.40;3.33;;;16.50;99.90;;;;;;4861139;29;20298;-62
2022/04/30 11:00:17;;;;;;;6.97;3.20;;;16.10;99.90;;;;;;4867095;29;20242;-62
2022/04/30 11:02:49;;;;;;;3.37;3.10;;;15.50;99.90;;;;;;4861393;29;20253;-63
2022/04/30 11:05:22;;;;;;;2.90;2.70;;;15.20;99.90;;;;;;4862348;29;20902;-64
2022/04/30 11:07:51;;;;;;;4.03;3.00;;;15.20;99.90;;;;;;4867567;29;20257;-63
2022/04/30 11:10:20;;;;;;;4.13;2.20;;;15.30;99.90;;;;;;4859134;29;20341;-63
2022/04/30 11:12:49;;;;;;;2.53;2.17;;;15.20;99.90;;;;;;4853739;29;20254;-64
2022/04/30 11:15:17;;;;;;;2.80;2.10;;;15.40;99.90;;;;;;4861002;29;20249;-62
2022/04/30 11:17:48;;;;;;;3.33;2.40;;;15.50;99.90;;;;;;4866733;29;20245;-64
2022/04/30 11:20:23;;;;;;;2.97;2.30;;;15.40;99.90;;;;;;4867192;29;20247;-62
2022/04/30 11:22:53;;;;;;;4.37;2.43;;;15.50;99.90;;;;;;4859575;29;20331;-62
2022/04/30 11:25:23;;;;;;;3.40;2.50;;;15.60;99.90;;;;;;4862509;29;20261;-64
2022/04/30 11:27:58;;;;;;;4.67;2.73;;;15.50;99.90;;;;;;4867167;29;20788;-62
2022/04/30 11:30:27;;;;;;;3.83;2.60;;;15.30;99.90;;;;;;4876173;29;21095;-62
2022/04/30 11:32:55;;;;;;;3.90;2.70;;;15.30;99.90;;;;;;4881329;29;20229;-62
2022/04/30 11:35:23;;;;;;;2.97;2.10;;;15.40;99.90;;;;;;4880749;29;20289;-63
2022/04/30 11:37:51;;;;;;;2.70;2.37;;;15.50;99.90;;;;;;4883601;29;20256;-62
2022/04/30 11:40:23;;;;;;;3.70;2.40;;;15.40;99.90;;;;;;4880286;29;20340;-63
2022/04/30 11:42:57;;;;;;;3.37;2.57;;;15.20;99.90;;;;;;4880703;29;20332;-64
2022/04/30 11:45:28;;;;;;;4.47;2.70;;;15.20;99.90;;;;;;4880326;29;20293;-63
2022/04/30 11:47:57;;;;;;;3.30;2.33;;;15.10;99.90;;;;;;4883800;29;20252;-62
2022/04/30 11:50:26;;;;;;;3.57;2.40;;;15.10;99.90;;;;;;4880105;29;20576;-63
2022/04/30 11:52:55;;;;;;;2.83;2.37;;;15.10;99.90;;;;;;4880228;29;20626;-63
2022/04/30 11:55:25;;;;;;;4.03;2.30;;;15.20;99.90;;;;;;4882784;29;20229;-63
2022/04/30 11:57:53;;;;;;;4.80;2.40;;;15.30;99.90;;;;;;4881807;29;20229;-64
2022/04/30 12:00:21;;;;;;;3.73;2.00;;;15.30;99.90;;;;;;4883647;29;20238;-62
2022/04/30 12:02:50;;;;;;;3.80;2.23;;;15.40;99.90;;;;;;4884259;29;20238;-62
2022/04/30 12:05:20;;;;;;;2.40;2.13;;;15.60;99.90;;;;;;4889827;29;20630;-64
2022/04/30 12:07:48;;;;;;;3.47;1.87;;;15.90;99.90;;;;;;4890196;29;20332;-62
2022/04/30 12:10:18;;;;;;;3.63;2.10;;;15.80;99.90;;;;;;4878519;29;20234;-63
2022/04/30 12:12:50;;;;;;;3.50;2.10;;;15.80;99.90;;;;;;4868340;29;20242;-62
2022/04/30 12:15:21;;;;;;;8.97;2.10;;;16.00;99.90;;;;;;4876119;29;20246;-63
2022/04/30 12:26:13;;;;;;;1.97;1.70;;;16.60;99.90;;;;;;4877045;29;20237;-62
2022/04/30 12:28:48;;;;;;;5.53;2.30;;;16.70;99.90;;;;;;4891915;29;20249;-62
2022/04/30 12:31:16;;;;;;;2.50;1.97;;;16.60;99.90;;;;;;4886407;29;20617;-62
2022/04/30 12:33:48;;;;;;;2.37;1.83;;;16.30;99.90;;;;;;4888815;29;20242;-62
2022/04/30 12:36:16;;;;;;;3.77;1.63;;;16.40;99.90;;;;;;4878238;29;20687;-63
2022/04/30 12:38:54;;;;;;;2.57;1.70;;;16.20;99.90;;;;;;4877763;29;20233;-62
2022/04/30 12:41:23;;;;;;;3.33;2.00;;;16.20;99.90;;;;;;4879980;29;20240;-62
2022/04/30 12:43:55;;;;;;;3.80;2.10;;;16.00;99.90;;;;;;4878360;29;20252;-61
2022/04/30 12:46:24;;;;;;;2.37;2.17;;;15.40;99.90;;;;;;4877358;29;20252;-61
2022/04/30 12:48:52;;;;;;;3.77;1.80;;;15.40;99.90;;;;;;4873157;29;20252;-64
2022/04/30 12:51:20;;;;;;;3.50;1.70;;;15.50;99.90;;;;;;4876091;29;20246;-62
2022/04/30 12:53:48;;;;;;;3.60;2.00;;;15.50;99.90;;;;;;4874383;29;20238;-63
2022/04/30 12:56:18;;;;;;;2.60;1.97;;;15.60;99.90;;;;;;4882134;29;20245;-61
2022/04/30 12:58:47;;;;;;;2.43;1.70;;;15.50;99.90;;;;;;4879476;29;20245;-63
2022/04/30 13:01:16;;;;;;;2.07;1.70;;;15.40;99.90;;;;;;4873779;29;20746;-61
2022/04/30 13:03:45;;;;;;;2.07;1.77;;;15.40;99.90;;;;;;4870824;29;20254;-62
2022/04/30 13:06:13;;;;;;;2.77;1.90;;;15.40;99.90;;;;;;4870133;29;20242;-61
2022/04/30 13:14:15;;;;;;;3.50;2.20;;;15.20;99.90;;;;;;4873545;29;20242;-63
2022/04/30 13:16:44;;;;;;;3.97;2.00;;;15.00;99.90;;;;;;4865562;29;20254;-60
2022/04/30 13:19:13;;;;;;;2.80;2.37;;;14.50;99.90;;;;;;4869392;29;20241;-61
2022/04/30 13:21:41;;;;;;;2.67;2.00;;;14.40;99.90;;;;;;4870624;29;20250;-62
2022/04/30 13:24:09;;;;;;;2.73;2.20;;;14.20;99.90;;;;;;4870734;29;20656;-61
2022/04/30 13:26:38;;;;;;;2.07;1.90;;;14.30;99.90;;;;;;4866431;29;20243;-62
2022/04/30 13:29:07;;;;;;;3.17;2.00;;;14.60;99.90;;;;;;4884586;29;20242;-62
2022/04/30 13:31:35;;;;;;;5.20;1.90;;;14.80;99.90;;;;;;4884658;29;20238;-63
2022/04/30 13:34:04;;;;;;;3.30;2.20;;;15.00;99.90;;;;;;4882248;29;20242;-61
2022/04/30 13:36:34;;;;;;;2.53;1.80;;;15.10;99.90;;;;;;4878780;29;20247;-62
2022/04/30 13:39:03;;;;;;;2.40;2.00;;;15.10;99.90;;;;;;4870875;29;20247;-61
2022/04/30 13:41:31;;;;;;;3.67;2.13;;;15.10;99.90;;;;;;4871061;29;20246;-61
2022/04/30 13:43:59;;;;;;;3.77;1.80;;;15.00;99.90;;;;;;4876936;29;20258;-61
2022/04/30 13:46:27;;;;;;;4.93;1.97;;;15.10;99.90;;;;;;4875106;29;20238;-62
2022/04/30 13:48:56;;;;;;;2.57;2.20;;;15.30;99.90;;;;;;4878392;29;20237;-62
2022/04/30 13:51:25;;;;;;;2.87;1.90;;;15.30;99.90;;;;;;4880148;29;20329;-63